Sakaide Maru — 3EYR6 — position and weather

sailwx.info

Track history (hours):
 
Tides and Currents Weather Stations Pressure Air Temp Water Temp Dewpoint Dewpoint Depression Visibility Wind Speed Wind Dir Waves Ship Positions

Sakaide Maru

Last reported at 2014-Aug-03 11:33 UTC. Time now 2014-Aug-30 22:36 UTC.
Position N 34°08' E 134°57'.
Warning: this ship's position is 27 days out of date.

Length 255 m; draft 8.5 m.

Type: Cargo ship. MMSI: 354898000.

Date/timePositionNaut miles runAvg speedWind from/ knotsBaromVisibWave heightAir tempDewpointWater temp
2014-Aug-03 11:33N 34°08' E 134°57'1110.2
2014-Aug-03 10:30N 34°19' E 134°59'1212.8
2014-Aug-03 09:33N 34°30' E 135°04'6 6.2
2014-Aug-03 08:33N 34°36' E 135°03'1111.3
2014-Aug-03 07:33N 34°33' E 134°49'1311.8
2014-Aug-03 06:27N 34°28' E 134°35'  
2014-Jul-29 02:04N 34°35' E 134°51'712.7
2014-Jul-29 01:33N 34°37' E 134°58'7 7.4
2014-Jul-29 00:33N 34°35' E 135°06'6 6.0
2014-Jul-28 23:33N 34°29' E 135°05'1111.2
2014-Jul-28 22:33N 34°19' E 134°60'10 9.6
2014-Jul-28 21:33N 34°09' E 134°60'8 8.0
2014-Jul-28 20:33N 34°02' E 134°59'10 9.9
2014-Jul-28 19:33N 33°52' E 134°58'3710.4
2014-Jul-28 16:03N 33°16' E 134°46'  
2014-Jul-25 12:28N 31°32' E 133°53'  
Track history (hours):
 
Tides and Currents Weather Stations Pressure Air Temp Water Temp Dewpoint Dewpoint Depression Visibility Wind Speed Wind Dir Waves Ship Positions

Sakaide Maru

Last reported at 2014-Aug-03 11:33 UTC. Time now 2014-Aug-30 22:36 UTC.
Position N 34°08' E 134°57'.
Warning: this ship's position is 27 days out of date.

Length 255 m; draft 8.5 m.

Type: Cargo ship. MMSI: 354898000.

Date/timePositionNaut miles runAvg speedWind from/ knotsBaromVisibWave heightAir tempDewpointWater temp
2014-Aug-03 11:33N 34°08' E 134°57'1110.2
2014-Aug-03 10:30N 34°19' E 134°59'1212.8
2014-Aug-03 09:33N 34°30' E 135°04'6 6.2
2014-Aug-03 08:33N 34°36' E 135°03'1111.3
2014-Aug-03 07:33N 34°33' E 134°49'1311.8
2014-Aug-03 06:27N 34°28' E 134°35'  
2014-Jul-29 02:04N 34°35' E 134°51'712.7
2014-Jul-29 01:33N 34°37' E 134°58'7 7.4
2014-Jul-29 00:33N 34°35' E 135°06'6 6.0
2014-Jul-28 23:33N 34°29' E 135°05'1111.2
2014-Jul-28 22:33N 34°19' E 134°60'10 9.6
2014-Jul-28 21:33N 34°09' E 134°60'8 8.0
2014-Jul-28 20:33N 34°02' E 134°59'10 9.9
2014-Jul-28 19:33N 33°52' E 134°58'3710.4
2014-Jul-28 16:03N 33°16' E 134°46'  
2014-Jul-25 12:28N 31°32' E 133°53'  

Dump ship's entire track history